Muito nublado (5-7 oitavos)
http://www.flightutilities.com

QR Code
SBPL 241700Z 19012KT 9999 BKN040 28/16 Q1017

Localidade: SBPL
PETROLINA - BRAZIL (PE)
Latitude: 09°21'54"S - Longitude: 040°33'59"W.
Declinação magnética: 22,59°W
Amanhecer: 08:57 UTC
Por do sol: 20:32 UTC
Boletim do: 24, as 17:00 UTC
sábado 24 junho 2017 17:00 horário de Greenwich (Zulu).
Vento: direção = 190 graus, velocidade: 12 nôs (22 km/h) (6 m/s).
Pista 13, comprimento 9843 pés, altitude 1249 pés: Vento ao través 12 KT dereita - Vento eixo pista 2 KT frontal.
Pista 31, comprimento 9843 pés, altitude 1259 pés: Vento ao través 12 KT esquerda - Vento eixo pista 1 KT de cauda.
Visibilidade horizontal minima: 10 km ou mais.
Nuvens: Muito nublado (5-7 oitavos), a 4000 pés acima do Aeródromo (1219 metros).
Temperatura: 28 graus Celsius (82 Fahrenheit). Ponto de orvalho: 16 graus Celsius (61 Fahrenheit). Umidade relativa 48,15 %. Índice de calor = 28 graus Celsius (82 Fahrenheit). Cautela. Possibilidade de fraqueza fisica.
QNH (pressão ao nível do mar): 1017 hPa (30,03 polegadas).
0:16
Confiabilidade do Metar - Tempo de emissão em horas e minutos
NOAA
Visual Flight Rules
12 KT
Vento
28/16
Temperatura / Ponto de orvalho
>10Km
Visibilidade horizontal minima
4000
Muito nublado (5-7 oitavos)
1017
Pressão ao nível do mar
22,59°W
Declinação magnética
08:57 Z
Amanhecer
20:32 Z
Por do sol
Mapa
Ver no Google Maps